Time;durP1;ratioP1;P1;durP2;ratioP2;P2;SDS_P1;SDS_P2;PMS_P1;PMS_P2;Temp;Humidity;BMP_temperature;BMP_pressure;BME280_temperature;BME280_humidity;BME280_pressure;Samples;Min_cycle;Max_cycle;Signal;HPM_P1;HPM_P2
2022/09/15 00:01:14;;;;;;;8.48;2.58;;;;;;;;;;5067702;28;20083;-65
2022/09/15 00:03:41;;;;;;;11.05;2.55;;;;;;;;;;5063128;28;20056;-59
2022/09/15 00:06:08;;;;;;;5.95;2.53;;;;;;;;;;5065511;28;20101;-60
2022/09/15 00:08:35;;;;;;;4.88;2.30;;;;;;;;;;5066710;28;20068;-60
2022/09/15 00:11:06;;;;;;;6.20;2.50;;;;;;;;;;5060741;28;20049;-62
2022/09/15 00:13:34;;;;;;;5.55;2.63;;;;;;;;;;5066676;28;20135;-64
2022/09/15 00:16:00;;;;;;;5.05;2.55;;;;;;;;;;5044790;28;20094;-64
2022/09/15 00:18:27;;;;;;;5.50;2.55;;;;;;;;;;5049667;28;20076;-65
2022/09/15 00:20:53;;;;;;;5.82;2.65;;;;;;;;;;5060464;28;20078;-63
2022/09/15 00:23:20;;;;;;;5.95;2.33;;;;;;;;;;5066103;28;20052;-63
2022/09/15 00:25:47;;;;;;;5.63;2.15;;;;;;;;;;5059411;28;20071;-63
2022/09/15 00:28:16;;;;;;;6.70;2.53;;;;;;;;;;5066389;28;20048;-64
2022/09/15 00:30:43;;;;;;;6.10;2.78;;;;;;;;;;5059789;28;20127;-62
2022/09/15 00:33:10;;;;;;;5.82;2.60;;;;;;;;;;5066084;28;20055;-64
2022/09/15 00:35:37;;;;;;;8.35;3.60;;;;;;;;;;5054948;28;20077;-64
2022/09/15 00:38:04;;;;;;;6.70;2.78;;;;;;;;;;5046404;28;20068;-64
2022/09/15 00:40:30;;;;;;;6.05;3.05;;;;;;;;;;5044519;28;20464;-64
2022/09/15 00:42:57;;;;;;;13.55;3.85;;;;;;;;;;5056590;28;20044;-64
2022/09/15 00:45:26;;;;;;;10.98;4.38;;;;;;;;;;5041872;28;20128;-62
2022/09/15 00:47:53;;;;;;;11.05;3.90;;;;;;;;;;5066855;28;20080;-63
2022/09/15 00:50:20;;;;;;;9.73;4.40;;;;;;;;;;5066983;28;20056;-60
2022/09/15 00:52:49;;;;;;;7.07;3.30;;;;;;;;;;5060288;28;20057;-60
2022/09/15 00:55:22;;;;;;;11.75;4.03;;;;;;;;;;5060713;28;20109;-63
2022/09/15 00:57:51;;;;;;;6.00;2.47;;;;;;;;;;5062314;28;20067;-62
2022/09/15 01:00:17;;;;;;;;;;;;;;;;;;5066635;28;20052;-64
2022/09/15 01:02:46;;;;;;;3.72;2.00;;;;;;;;;;5045574;28;20019;-60
2022/09/15 01:05:16;;;;;;;4.60;1.88;;;;;;;;;;5045931;28;20041;-62
2022/09/15 01:07:44;;;;;;;4.65;1.90;;;;;;;;;;5054375;28;20146;-62
2022/09/15 01:10:12;;;;;;;4.93;2.40;;;;;;;;;;5066892;28;20064;-63
2022/09/15 01:12:40;;;;;;;4.65;1.90;;;;;;;;;;5059819;28;20106;-62
2022/09/15 01:15:07;;;;;;;4.45;1.90;;;;;;;;;;5066408;28;20139;-63
2022/09/15 01:17:40;;;;;;;4.10;1.90;;;;;;;;;;5051926;28;20114;-62
2022/09/15 01:20:23;;;;;;;4.45;1.98;;;;;;;;;;5045770;28;20053;-64
2022/09/15 01:22:55;;;;;;;3.75;2.00;;;;;;;;;;5026872;28;20063;-63
2022/09/15 01:25:30;;;;;;;4.18;1.88;;;;;;;;;;5036917;28;20060;-63
2022/09/15 01:28:10;;;;;;;3.67;1.83;;;;;;;;;;5040756;28;20053;-58
2022/09/15 01:30:39;;;;;;;3.25;1.50;;;;;;;;;;5046006;28;20123;-62
2022/09/15 01:33:09;;;;;;;4.15;1.77;;;;;;;;;;5049805;28;20041;-62
2022/09/15 01:35:42;;;;;;;5.25;1.80;;;;;;;;;;5065255;28;20057;-64
2022/09/15 01:38:11;;;;;;;4.65;2.05;;;;;;;;;;5060889;28;20052;-63
2022/09/15 01:40:41;;;;;;;3.35;1.70;;;;;;;;;;5069401;28;20056;-61
2022/09/15 01:43:09;;;;;;;3.60;1.90;;;;;;;;;;5054173;28;20075;-63
2022/09/15 01:45:38;;;;;;;4.77;1.90;;;;;;;;;;5049396;28;20061;-64
2022/09/15 01:48:08;;;;;;;4.75;1.95;;;;;;;;;;5045831;28;20131;-61
2022/09/15 01:50:36;;;;;;;4.15;2.00;;;;;;;;;;5069573;28;20052;-63
2022/09/15 01:53:04;;;;;;;4.18;1.63;;;;;;;;;;5065270;28;20052;-62
2022/09/15 01:55:36;;;;;;;4.35;1.85;;;;;;;;;;5071750;28;20066;-59
2022/09/15 01:58:02;;;;;;;3.92;1.90;;;;;;;;;;5071421;28;20079;-62
2022/09/15 02:00:29;;;;;;;5.50;2.15;;;;;;;;;;5064892;28;20109;-59
2022/09/15 02:02:58;;;;;;;6.85;2.97;;;;;;;;;;5068867;28;20053;-59
2022/09/15 02:05:30;;;;;;;6.93;3.10;;;;;;;;;;5061975;28;20055;-63
2022/09/15 02:08:02;;;;;;;3.22;1.70;;;;;;;;;;5067265;28;20071;-63
2022/09/15 02:10:32;;;;;;;3.60;1.85;;;;;;;;;;5062480;28;20049;-63
2022/09/15 02:13:02;;;;;;;3.33;1.70;;;;;;;;;;5068754;28;20048;-61
2022/09/15 02:15:32;;;;;;;4.22;1.90;;;;;;;;;;5062399;28;20102;-63
2022/09/15 02:18:01;;;;;;;3.50;1.67;;;;;;;;;;5068753;28;20084;-63
2022/09/15 02:20:34;;;;;;;2.80;1.63;;;;;;;;;;5046384;28;20056;-65
2022/09/15 02:23:06;;;;;;;3.30;1.70;;;;;;;;;;5048585;28;20084;-65
2022/09/15 02:25:38;;;;;;;3.60;1.58;;;;;;;;;;5043324;28;20064;-63
2022/09/15 02:28:06;;;;;;;4.05;1.75;;;;;;;;;;5048750;28;20061;-61
2022/09/15 02:30:33;;;;;;;;;;;;;;;;;;5054319;28;20057;-63
2022/09/15 02:33:01;;;;;;;5.25;2.20;;;;;;;;;;5069956;28;19920;-60
2022/09/15 02:35:31;;;;;;;8.02;3.67;;;;;;;;;;5056129;28;20049;-63
2022/09/15 02:37:58;;;;;;;3.95;1.75;;;;;;;;;;5051278;28;20045;-62
2022/09/15 02:40:25;;;;;;;5.53;2.63;;;;;;;;;;5065996;28;20152;-61
2022/09/15 02:42:52;;;;;;;6.95;3.15;;;;;;;;;;5068078;28;20056;-62
2022/09/15 02:45:19;;;;;;;4.60;2.05;;;;;;;;;;5062260;28;20056;-58
2022/09/15 02:47:45;;;;;;;2.95;1.65;;;;;;;;;;5066538;28;20143;-60
2022/09/15 02:50:12;;;;;;;3.38;1.73;;;;;;;;;;5063509;28;20102;-58
2022/09/15 02:52:40;;;;;;;3.72;1.60;;;;;;;;;;5048373;28;20053;-61
2022/09/15 02:55:07;;;;;;;4.15;1.55;;;;;;;;;;5048396;28;20107;-60
2022/09/15 02:57:34;;;;;;;3.05;1.63;;;;;;;;;;5078846;28;20052;-58
2022/09/15 03:00:13;;;;;;;2.60;1.65;;;;;;;;;;5069032;28;20094;-61
2022/09/15 03:02:40;;;;;;;3.88;1.40;;;;;;;;;;5045336;28;20144;-58
2022/09/15 03:05:09;;;;;;;5.10;2.17;;;;;;;;;;5048360;28;20056;-61
2022/09/15 03:07:36;;;;;;;3.53;1.60;;;;;;;;;;5058532;28;20056;-59
2022/09/15 03:10:05;;;;;;;2.97;1.50;;;;;;;;;;5068943;28;20056;-60
2022/09/15 03:12:31;;;;;;;3.47;1.55;;;;;;;;;;5060777;28;20109;-61
2022/09/15 03:14:59;;;;;;;3.55;1.80;;;;;;;;;;5069181;28;20123;-59
2022/09/15 03:17:26;;;;;;;4.28;1.52;;;;;;;;;;5052427;28;20049;-62
2022/09/15 03:19:52;;;;;;;2.80;1.40;;;;;;;;;;5049366;28;20053;-60
2022/09/15 03:22:19;;;;;;;2.90;1.55;;;;;;;;;;5046155;28;20103;-61
2022/09/15 03:24:48;;;;;;;3.17;1.60;;;;;;;;;;5051495;28;20048;-59
2022/09/15 03:27:16;;;;;;;2.78;1.27;;;;;;;;;;5050907;28;20045;-60
2022/09/15 03:29:43;;;;;;;3.00;1.58;;;;;;;;;;5070502;28;20052;-60
2022/09/15 03:32:10;;;;;;;3.28;1.45;;;;;;;;;;5063939;28;20049;-60
2022/09/15 03:34:36;;;;;;;3.03;1.60;;;;;;;;;;5067681;28;20202;-61
2022/09/15 03:37:03;;;;;;;3.38;1.67;;;;;;;;;;5061180;28;20075;-62
2022/09/15 03:39:30;;;;;;;2.25;1.30;;;;;;;;;;5048971;28;20057;-59
2022/09/15 03:41:56;;;;;;;4.22;1.35;;;;;;;;;;5048397;28;20076;-60
2022/09/15 03:44:24;;;;;;;3.08;1.40;;;;;;;;;;5060989;28;20060;-61
2022/09/15 03:46:51;;;;;;;3.38;1.42;;;;;;;;;;5067266;28;20060;-61
2022/09/15 03:49:18;;;;;;;2.70;1.25;;;;;;;;;;5045702;28;20148;-60
2022/09/15 03:51:44;;;;;;;2.97;1.27;;;;;;;;;;5047231;28;20076;-63
2022/09/15 03:54:11;;;;;;;2.47;1.30;;;;;;;;;;5041320;28;20055;-57
2022/09/15 03:56:37;;;;;;;3.33;1.27;;;;;;;;;;5047492;28;20080;-60
2022/09/15 03:59:06;;;;;;;2.17;1.13;;;;;;;;;;5042196;28;20052;-62
2022/09/15 04:01:34;;;;;;;2.50;1.30;;;;;;;;;;5044959;28;20057;-63
2022/09/15 04:04:01;;;;;;;1.23;0.95;;;;;;;;;;5049938;28;20167;-58
2022/09/15 04:06:29;;;;;;;2.72;1.15;;;;;;;;;;5066955;28;20113;-61
2022/09/15 04:08:56;;;;;;;2.03;1.30;;;;;;;;;;5057322;28;20052;-62
2022/09/15 04:11:23;;;;;;;2.60;1.40;;;;;;;;;;5049391;28;20041;-60
2022/09/15 04:13:50;;;;;;;2.22;1.15;;;;;;;;;;5044861;28;20037;-56
2022/09/15 04:16:18;;;;;;;2.45;1.13;;;;;;;;;;5047661;28;20115;-61
2022/09/15 04:18:46;;;;;;;1.85;0.98;;;;;;;;;;5042723;28;20079;-62
2022/09/15 04:21:13;;;;;;;1.80;1.10;;;;;;;;;;5046932;28;20060;-59
2022/09/15 04:23:40;;;;;;;2.47;1.30;;;;;;;;;;5048724;28;20057;-60
2022/09/15 04:26:08;;;;;;;1.58;1.10;;;;;;;;;;5041968;28;20052;-62
2022/09/15 04:28:36;;;;;;;2.25;1.20;;;;;;;;;;5046501;28;20151;-63
2022/09/15 04:31:03;;;;;;;1.67;1.05;;;;;;;;;;5058190;28;20053;-63
2022/09/15 04:33:30;;;;;;;4.13;1.13;;;;;;;;;;5066058;28;20114;-59
2022/09/15 04:35:59;;;;;;;3.55;1.23;;;;;;;;;;5059898;28;20116;-60
2022/09/15 04:38:26;;;;;;;3.00;1.42;;;;;;;;;;5066395;28;20053;-63
2022/09/15 04:40:54;;;;;;;7.38;1.80;;;;;;;;;;5059673;28;20048;-59
2022/09/15 04:43:20;;;;;;;2.03;1.10;;;;;;;;;;5062216;28;20055;-60
2022/09/15 04:45:47;;;;;;;1.77;1.10;;;;;;;;;;5058012;28;20076;-63
2022/09/15 04:48:13;;;;;;;8.95;1.20;;;;;;;;;;5063012;28;20049;-62
2022/09/15 04:50:40;;;;;;;2.53;1.30;;;;;;;;;;5057422;28;20080;-61
2022/09/15 04:53:08;;;;;;;6.95;1.15;;;;;;;;;;5045873;28;20052;-59
2022/09/15 04:55:36;;;;;;;4.35;1.45;;;;;;;;;;5057565;28;20115;-59
2022/09/15 04:58:05;;;;;;;2.27;1.20;;;;;;;;;;5056131;28;20059;-58
2022/09/15 05:00:35;;;;;;;2.10;1.20;;;;;;;;;;5058929;28;20139;-62
2022/09/15 05:03:01;;;;;;;2.35;1.10;;;;;;;;;;5047759;28;20073;-59
2022/09/15 05:05:28;;;;;;;4.43;1.00;;;;;;;;;;5041821;28;20052;-62
2022/09/15 05:07:55;;;;;;;2.67;1.20;;;;;;;;;;5046753;28;20064;-60
2022/09/15 05:10:23;;;;;;;3.00;1.10;;;;;;;;;;5046042;28;20079;-60
2022/09/15 05:12:49;;;;;;;1.55;1.00;;;;;;;;;;5059896;28;20052;-59
2022/09/15 05:15:16;;;;;;;3.90;1.23;;;;;;;;;;5066802;28;20048;-59
2022/09/15 05:17:42;;;;;;;1.88;1.08;;;;;;;;;;5046388;28;20061;-62
2022/09/15 05:20:12;;;;;;;1.48;0.90;;;;;;;;;;5048045;28;20057;-58
2022/09/15 05:22:39;;;;;;;1.88;0.93;;;;;;;;;;5055391;28;20060;-62
2022/09/15 05:25:07;;;;;;;2.22;1.00;;;;;;;;;;5067096;28;20118;-61
2022/09/15 05:27:35;;;;;;;1.50;1.00;;;;;;;;;;5049729;28;20053;-59
2022/09/15 05:30:01;;;;;;;1.20;0.90;;;;;;;;;;5046497;28;20103;-61
2022/09/15 05:32:28;;;;;;;5.10;1.35;;;;;;;;;;5041365;28;20045;-59
2022/09/15 05:34:56;;;;;;;2.75;1.10;;;;;;;;;;5046701;28;20071;-59
2022/09/15 05:37:22;;;;;;;3.53;1.17;;;;;;;;;;5046983;28;20048;-60
2022/09/15 05:39:49;;;;;;;2.08;0.90;;;;;;;;;;5047368;28;20045;-57
2022/09/15 05:42:16;;;;;;;7.90;1.23;;;;;;;;;;5045171;28;20067;-58
2022/09/15 05:44:44;;;;;;;5.35;1.40;;;;;;;;;;5066447;28;20048;-58
2022/09/15 05:47:10;;;;;;;6.05;1.30;;;;;;;;;;5059750;28;20094;-60
2022/09/15 05:49:37;;;;;;;3.17;1.05;;;;;;;;;;5046277;28;20075;-59
2022/09/15 05:52:04;;;;;;;2.13;0.95;;;;;;;;;;5045795;28;20052;-58
2022/09/15 05:54:30;;;;;;;2.22;0.93;;;;;;;;;;5059970;28;20055;-61
2022/09/15 05:56:57;;;;;;;2.17;1.00;;;;;;;;;;5068344;28;20071;-60
2022/09/15 05:59:23;;;;;;;2.13;0.90;;;;;;;;;;5061580;28;20053;-61
2022/09/15 06:01:51;;;;;;;6.60;1.20;;;;;;;;;;5068030;28;20131;-57
2022/09/15 06:04:19;;;;;;;3.03;1.05;;;;;;;;;;5045250;28;20140;-61
2022/09/15 06:06:46;;;;;;;5.50;1.00;;;;;;;;;;5045676;28;20057;-63
2022/09/15 06:09:13;;;;;;;4.35;1.00;;;;;;;;;;5040125;28;20060;-62
2022/09/15 06:11:41;;;;;;;2.28;0.80;;;;;;;;;;5045567;28;20055;-59
2022/09/15 06:14:07;;;;;;;1.67;0.80;;;;;;;;;;5048826;28;20052;-62
2022/09/15 06:16:34;;;;;;;1.33;0.85;;;;;;;;;;5065272;28;20090;-61
2022/09/15 06:19:04;;;;;;;3.10;0.90;;;;;;;;;;5049950;28;20103;-61
2022/09/15 06:21:31;;;;;;;1.08;0.75;;;;;;;;;;5044834;28;20061;-62
2022/09/15 06:23:59;;;;;;;1.23;0.60;;;;;;;;;;5046158;28;20048;-57
2022/09/15 06:26:26;;;;;;;1.80;0.70;;;;;;;;;;5072076;28;20055;-62
2022/09/15 06:28:54;;;;;;;3.42;1.10;;;;;;;;;;5066024;28;20044;-63
2022/09/15 06:31:21;;;;;;;3.17;0.95;;;;;;;;;;5069480;28;20048;-60
2022/09/15 06:33:49;;;;;;;5.22;1.00;;;;;;;;;;5068088;28;20063;-57
2022/09/15 06:36:16;;;;;;;;;;;;;;;;;;5064605;28;20045;-59
2022/09/15 06:38:44;;;;;;;5.35;1.23;;;;;;;;;;5049001;28;19998;-60
2022/09/15 06:41:11;;;;;;;0.70;0.60;;;;;;;;;;5043481;28;20059;-59
2022/09/15 06:43:39;;;;;;;2.75;0.90;;;;;;;;;;5061984;28;20046;-60
2022/09/15 06:46:06;;;;;;;1.23;0.68;;;;;;;;;;5061381;28;20040;-62
2022/09/15 06:48:33;;;;;;;1.90;0.90;;;;;;;;;;5059017;28;20072;-61
2022/09/15 06:51:00;;;;;;;8.23;1.00;;;;;;;;;;5052705;28;28515;-60
2022/09/15 06:53:28;;;;;;;1.52;0.90;;;;;;;;;;5060741;28;20055;-60
2022/09/15 06:55:56;;;;;;;2.55;1.10;;;;;;;;;;5050536;28;20133;-58
2022/09/15 06:58:22;;;;;;;2.90;1.10;;;;;;;;;;5056177;28;20049;-59
2022/09/15 07:00:49;;;;;;;3.47;1.10;;;;;;;;;;5049585;28;20298;-58
2022/09/15 07:03:15;;;;;;;2.60;1.13;;;;;;;;;;5063222;28;20057;-60
2022/09/15 07:05:43;;;;;;;1.80;0.90;;;;;;;;;;5052575;28;20114;-61
2022/09/15 07:08:10;;;;;;;8.67;1.30;;;;;;;;;;5072065;28;20061;-59
2022/09/15 07:10:36;;;;;;;5.22;1.10;;;;;;;;;;5061108;28;20095;-60
2022/09/15 07:13:04;;;;;;;4.97;1.40;;;;;;;;;;5067606;28;20143;-59
2022/09/15 07:15:31;;;;;;;1.75;0.88;;;;;;;;;;5061667;28;20048;-58
2022/09/15 07:17:58;;;;;;;9.15;1.42;;;;;;;;;;5067860;28;20139;-61
2022/09/15 07:20:26;;;;;;;4.97;1.30;;;;;;;;;;5068261;28;20052;-60
2022/09/15 07:22:52;;;;;;;2.53;0.95;;;;;;;;;;5061336;28;20056;-60
2022/09/15 07:25:19;;;;;;;6.03;1.10;;;;;;;;;;5068058;28;20063;-61
2022/09/15 07:27:46;;;;;;;3.08;1.00;;;;;;;;;;5045973;28;20045;-60
2022/09/15 07:30:14;;;;;;;2.45;0.88;;;;;;;;;;5048179;28;20126;-60
2022/09/15 07:32:41;;;;;;;6.45;1.08;;;;;;;;;;5056757;28;20052;-57
2022/09/15 07:35:09;;;;;;;3.53;0.93;;;;;;;;;;5085944;28;20049;-61
2022/09/15 07:42:46;;;;;;;8.98;1.58;;;;;;;;;;6121058;22;20127;-62
2022/09/15 07:45:14;;;;;;;4.07;1.20;;;;;;;;;;5009858;28;20056;-60
2022/09/15 07:47:40;;;;;;;6.00;1.67;;;;;;;;;;5006378;28;20073;-58
2022/09/15 07:50:07;;;;;;;8.18;1.50;;;;;;;;;;4992007;28;20084;-61
2022/09/15 07:52:35;;;;;;;2.47;1.05;;;;;;;;;;4992078;28;20064;-59
2022/09/15 07:55:01;;;;;;;5.72;1.63;;;;;;;;;;5006618;28;20045;-62
2022/09/15 07:57:28;;;;;;;7.05;1.40;;;;;;;;;;5011265;28;20061;-59
2022/09/15 07:59:54;;;;;;;5.43;1.30;;;;;;;;;;5010259;28;20058;-62
2022/09/15 08:02:22;;;;;;;8.00;2.03;;;;;;;;;;5011090;28;20057;-61
2022/09/15 08:04:49;;;;;;;8.70;1.60;;;;;;;;;;5006974;28;20095;-59
2022/09/15 08:07:16;;;;;;;9.70;1.55;;;;;;;;;;5027900;28;20061;-61
2022/09/15 08:09:42;;;;;;;8.48;1.50;;;;;;;;;;5004249;28;20050;-59
2022/09/15 08:12:09;;;;;;;7.70;1.50;;;;;;;;;;5006999;28;20058;-59
2022/09/15 08:14:36;;;;;;;6.70;1.80;;;;;;;;;;4996432;28;20064;-59
2022/09/15 08:17:03;;;;;;;3.50;1.10;;;;;;;;;;5010941;28;20045;-58
2022/09/15 08:19:32;;;;;;;4.70;1.10;;;;;;;;;;5009141;28;20076;-60
2022/09/15 08:21:59;;;;;;;4.57;1.10;;;;;;;;;;5010445;28;20061;-60
2022/09/15 08:24:26;;;;;;;4.80;0.90;;;;;;;;;;5006689;28;20138;-58
2022/09/15 08:26:53;;;;;;;5.68;1.17;;;;;;;;;;5007904;28;20053;-59
2022/09/15 08:29:19;;;;;;;5.50;1.20;;;;;;;;;;5023183;28;20049;-58
2022/09/15 08:31:46;;;;;;;5.03;1.10;;;;;;;;;;4998117;28;20057;-57
2022/09/15 08:34:14;;;;;;;4.57;1.00;;;;;;;;;;4990950;28;20057;-57
2022/09/15 08:36:42;;;;;;;4.47;1.00;;;;;;;;;;5008803;28;20061;-59
2022/09/15 08:39:08;;;;;;;3.47;0.90;;;;;;;;;;5011261;28;20061;-57
2022/09/15 08:41:36;;;;;;;3.13;0.90;;;;;;;;;;5003619;28;20135;-58
2022/09/15 08:44:07;;;;;;;30.15;3.25;;;;;;;;;;4988354;28;20058;-59
2022/09/15 08:46:35;;;;;;;18.65;2.00;;;;;;;;;;4986079;28;20046;-57
2022/09/15 08:49:05;;;;;;;3.28;1.00;;;;;;;;;;4989517;28;20141;-58
2022/09/15 08:51:39;;;;;;;1.90;0.80;;;;;;;;;;4982543;28;20080;-57
2022/09/15 08:54:08;;;;;;;5.45;0.68;;;;;;;;;;5025166;28;20042;-58
2022/09/15 08:56:36;;;;;;;5.10;1.50;;;;;;;;;;4992416;28;20042;-59
2022/09/15 08:59:03;;;;;;;11.85;0.90;;;;;;;;;;4991169;28;20148;-59
2022/09/15 09:01:35;;;;;;;4.18;0.85;;;;;;;;;;4993553;28;20113;-57
2022/09/15 09:04:12;;;;;;;3.42;1.00;;;;;;;;;;4987339;28;20077;-58
2022/09/15 09:06:43;;;;;;;5.78;1.23;;;;;;;;;;4997132;28;20076;-59
2022/09/15 09:09:15;;;;;;;3.80;1.20;;;;;;;;;;5006957;28;20060;-55
2022/09/15 09:11:53;;;;;;;5.47;0.80;;;;;;;;;;5002882;28;20077;-59
2022/09/15 09:14:24;;;;;;;4.28;1.00;;;;;;;;;;5006136;28;20061;-55
2022/09/15 09:16:58;;;;;;;6.05;1.10;;;;;;;;;;4995443;28;20143;-59
2022/09/15 09:19:40;;;;;;;3.13;0.98;;;;;;;;;;4987317;28;20073;-56
2022/09/15 09:22:09;;;;;;;3.65;0.88;;;;;;;;;;4981063;28;20050;-57
2022/09/15 09:24:40;;;;;;;7.22;0.88;;;;;;;;;;4987173;28;20081;-56
2022/09/15 09:27:12;;;;;;;3.13;0.50;;;;;;;;;;4989999;28;20053;-57
2022/09/15 09:29:40;;;;;;;4.18;0.90;;;;;;;;;;5007397;28;20061;-54
2022/09/15 09:32:13;;;;;;;3.88;0.90;;;;;;;;;;5002887;28;20065;-56
2022/09/15 09:34:44;;;;;;;3.88;0.80;;;;;;;;;;4992402;28;20050;-57
2022/09/15 09:37:11;;;;;;;2.38;0.73;;;;;;;;;;4984372;28;20066;-57
2022/09/15 09:39:39;;;;;;;3.88;0.90;;;;;;;;;;5006788;28;20167;-56
2022/09/15 09:42:07;;;;;;;2.90;0.80;;;;;;;;;;5003087;28;20049;-58
2022/09/15 09:44:39;;;;;;;6.68;1.00;;;;;;;;;;4988501;28;20077;-55
2022/09/15 09:47:06;;;;;;;5.95;0.85;;;;;;;;;;4988726;28;20078;-55
2022/09/15 09:49:38;;;;;;;3.90;0.73;;;;;;;;;;4987244;28;20066;-57
2022/09/15 09:52:05;;;;;;;7.50;0.90;;;;;;;;;;4988905;28;20050;-54
2022/09/15 09:54:34;;;;;;;1.48;0.68;;;;;;;;;;5001687;28;20121;-57
2022/09/15 09:57:19;;;;;;;1.63;0.60;;;;;;;;;;5006900;28;20056;-58
2022/09/15 09:59:48;;;;;;;1.80;0.60;;;;;;;;;;5005041;28;20066;-58
2022/09/15 10:02:16;;;;;;;7.65;0.80;;;;;;;;;;5027044;28;20103;-56
2022/09/15 10:04:45;;;;;;;2.67;0.60;;;;;;;;;;5006753;28;20045;-55
2022/09/15 10:07:12;;;;;;;2.05;0.75;;;;;;;;;;5010389;28;20066;-54
2022/09/15 10:09:39;;;;;;;7.38;0.80;;;;;;;;;;5005925;28;20058;-58
2022/09/15 10:12:07;;;;;;;1.13;0.50;;;;;;;;;;5010718;28;20145;-57
2022/09/15 10:14:35;;;;;;;5.38;0.80;;;;;;;;;;5005426;28;20054;-55
2022/09/15 10:17:06;;;;;;;8.25;0.90;;;;;;;;;;5011601;28;20061;-58
2022/09/15 10:19:35;;;;;;;5.22;0.70;;;;;;;;;;5005614;28;20054;-60
2022/09/15 10:22:03;;;;;;;2.55;0.65;;;;;;;;;;5010241;28;20060;-55
2022/09/15 10:24:32;;;;;;;7.43;0.90;;;;;;;;;;4988177;28;20066;-57
2022/09/15 10:27:06;;;;;;;1.27;0.55;;;;;;;;;;4990553;28;20062;-58
2022/09/15 10:29:37;;;;;;;1.38;0.50;;;;;;;;;;4986773;28;20054;-56
2022/09/15 10:32:17;;;;;;;2.10;0.63;;;;;;;;;;4992125;28;20059;-57
2022/09/15 10:34:44;;;;;;;7.53;0.85;;;;;;;;;;4993588;28;20096;-57
2022/09/15 10:37:15;;;;;;;3.88;0.80;;;;;;;;;;5009462;28;20050;-58
2022/09/15 10:39:48;;;;;;;2.05;0.70;;;;;;;;;;5004927;28;20045;-58
2022/09/15 10:42:19;;;;;;;2.45;0.70;;;;;;;;;;5006587;28;20077;-57
2022/09/15 10:44:51;;;;;;;3.88;1.23;;;;;;;;;;4989311;28;20049;-58
2022/09/15 10:47:24;;;;;;;4.20;1.40;;;;;;;;;;5010061;28;20100;-58
2022/09/15 10:49:58;;;;;;;5.53;1.75;;;;;;;;;;5004844;28;20068;-60
2022/09/15 10:52:29;;;;;;;6.53;1.83;;;;;;;;;;4991904;28;20081;-57
2022/09/15 10:55:17;;;;;;;4.00;1.48;;;;;;;;;;4989908;28;20065;-58
2022/09/15 10:57:53;;;;;;;5.45;1.67;;;;;;;;;;4994139;28;20058;-59
2022/09/15 11:00:21;;;;;;;3.22;0.90;;;;;;;;;;4986605;28;20046;-59
2022/09/15 11:03:05;;;;;;;2.67;1.23;;;;;;;;;;4974428;28;20109;-60
2022/09/15 11:05:36;;;;;;;5.25;1.15;;;;;;;;;;4970310;28;20055;-58
2022/09/15 11:08:28;;;;;;;5.45;1.30;;;;;;;;;;4973841;28;20050;-58
2022/09/15 11:10:59;;;;;;;5.25;1.42;;;;;;;;;;4950822;28;20046;-61
2022/09/15 11:13:28;;;;;;;8.25;1.20;;;;;;;;;;4973528;28;20043;-58
2022/09/15 11:16:00;;;;;;;8.55;1.10;;;;;;;;;;4960926;28;20057;-58
2022/09/15 11:18:37;;;;;;;3.42;0.90;;;;;;;;;;4992813;28;20076;-58
2022/09/15 11:21:13;;;;;;;3.60;0.75;;;;;;;;;;4987546;28;20181;-59
2022/09/15 11:23:42;;;;;;;5.90;1.35;;;;;;;;;;4973511;28;20081;-58
2022/09/15 11:26:09;;;;;;;;;;;;;;;;;;4970297;28;20058;-60
2022/09/15 11:28:39;;;;;;;6.72;1.08;;;;;;;;;;4973127;28;20015;-59
2022/09/15 11:31:10;;;;;;;7.20;0.90;;;;;;;;;;4985721;28;20077;-61
2022/09/15 11:33:41;;;;;;;5.50;0.80;;;;;;;;;;5007433;28;20046;-59
2022/09/15 11:36:11;;;;;;;4.10;0.90;;;;;;;;;;5009006;28;20042;-58
2022/09/15 11:38:46;;;;;;;3.67;0.98;;;;;;;;;;5010475;28;20078;-59
2022/09/15 11:41:20;;;;;;;5.60;1.00;;;;;;;;;;4989905;28;20104;-58
2022/09/15 11:43:53;;;;;;;2.80;0.93;;;;;;;;;;4992476;28;20058;-58
2022/09/15 11:46:23;;;;;;;3.80;0.90;;;;;;;;;;5025716;28;20046;-56
2022/09/15 11:48:55;;;;;;;7.15;1.25;;;;;;;;;;5004218;28;20057;-58
2022/09/15 11:51:25;;;;;;;5.43;1.25;;;;;;;;;;5008780;28;20067;-57
2022/09/15 11:53:54;;;;;;;2.85;1.00;;;;;;;;;;5003826;28;20050;-57
2022/09/15 11:56:20;;;;;;;;;;;;;;;;;;4998134;28;20069;-57
2022/09/15 11:58:57;;;;;;;8.02;0.80;;;;;;;;;;4985022;28;20050;-60
2022/09/15 12:01:25;;;;;;;5.95;0.90;;;;;;;;;;4997424;28;20058;-56
2022/09/15 12:03:56;;;;;;;2.60;0.80;;;;;;;;;;4992141;28;20115;-57
2022/09/15 12:06:28;;;;;;;3.03;0.90;;;;;;;;;;4988714;28;20058;-57
2022/09/15 12:08:59;;;;;;;2.55;0.80;;;;;;;;;;4996016;28;20061;-58
2022/09/15 12:11:27;;;;;;;3.50;0.93;;;;;;;;;;5008152;28;20054;-58
2022/09/15 12:13:54;;;;;;;4.60;0.80;;;;;;;;;;4995893;28;20058;-56
2022/09/15 12:16:21;;;;;;;2.88;1.10;;;;;;;;;;4988501;28;20108;-57
2022/09/15 12:18:51;;;;;;;9.48;1.10;;;;;;;;;;4993047;28;20079;-59
2022/09/15 12:21:22;;;;;;;5.35;0.95;;;;;;;;;;5007344;28;20050;-56
2022/09/15 12:23:54;;;;;;;2.47;1.10;;;;;;;;;;5003540;28;20060;-58
2022/09/15 12:26:22;;;;;;;2.42;0.85;;;;;;;;;;5008030;28;20046;-57
2022/09/15 12:28:54;;;;;;;3.13;0.70;;;;;;;;;;5004172;28;20041;-59
2022/09/15 12:31:35;;;;;;;5.90;0.98;;;;;;;;;;5008330;28;20053;-56
2022/09/15 12:34:02;;;;;;;3.95;0.82;;;;;;;;;;4983786;28;20161;-57
2022/09/15 12:36:46;;;;;;;9.70;1.00;;;;;;;;;;4973684;28;20050;-58
2022/09/15 12:39:21;;;;;;;1.83;0.63;;;;;;;;;;4985732;28;20046;-58
2022/09/15 12:41:49;;;;;;;3.90;1.10;;;;;;;;;;4993869;28;20054;-58
2022/09/15 12:44:18;;;;;;;7.10;0.85;;;;;;;;;;5013150;28;20066;-60
2022/09/15 12:46:50;;;;;;;6.85;1.20;;;;;;;;;;5001926;28;20054;-57
2022/09/15 12:49:18;;;;;;;5.07;0.98;;;;;;;;;;4985951;28;20054;-58
2022/09/15 12:51:48;;;;;;;4.88;0.93;;;;;;;;;;4969126;28;20089;-59
2022/09/15 12:54:20;;;;;;;2.88;0.80;;;;;;;;;;4969216;28;20089;-58
2022/09/15 12:56:51;;;;;;;4.60;1.05;;;;;;;;;;4979384;28;20082;-55
2022/09/15 12:59:18;;;;;;;2.85;0.85;;;;;;;;;;4987691;28;20081;-57
2022/09/15 13:01:48;;;;;;;1.23;0.80;;;;;;;;;;4984826;28;20056;-57
2022/09/15 13:04:42;;;;;;;4.50;0.80;;;;;;;;;;4989308;28;20058;-57
2022/09/15 13:07:21;;;;;;;3.40;0.63;;;;;;;;;;4983159;28;20082;-56
2022/09/15 13:09:56;;;;;;;3.17;0.90;;;;;;;;;;4988170;28;20050;-53
2022/09/15 13:12:25;;;;;;;3.05;0.95;;;;;;;;;;4999713;28;20154;-57
2022/09/15 13:14:51;;;;;;;;;;;;;;;;;;4987659;28;20058;-59
2022/09/15 13:17:19;;;;;;;3.50;0.90;;;;;;;;;;4982292;28;19922;-56
2022/09/15 13:19:47;;;;;;;4.78;0.80;;;;;;;;;;4987087;28;20077;-57
2022/09/15 13:22:17;;;;;;;2.80;0.68;;;;;;;;;;4981506;28;20046;-58
2022/09/15 13:24:46;;;;;;;3.00;0.90;;;;;;;;;;4987189;28;20079;-55
2022/09/15 13:27:14;;;;;;;2.55;0.63;;;;;;;;;;4982535;28;20133;-56
2022/09/15 13:29:46;;;;;;;2.17;0.63;;;;;;;;;;4986665;28;20061;-57
2022/09/15 13:32:20;;;;;;;1.77;0.52;;;;;;;;;;4980191;28;20059;-56
2022/09/15 13:35:07;;;;;;;5.07;0.82;;;;;;;;;;4971254;28;20066;-58
2022/09/15 13:37:41;;;;;;;3.58;0.90;;;;;;;;;;4979079;28;20356;-57
2022/09/15 13:40:26;;;;;;;0.70;0.40;;;;;;;;;;4991487;28;20046;-56
2022/09/15 13:43:03;;;;;;;4.40;0.70;;;;;;;;;;4924565;28;20053;-55
2022/09/15 13:45:42;;;;;;;5.47;0.70;;;;;;;;;;4982971;28;20111;-53
2022/09/15 13:48:08;;;;;;;;;;;;;;;;;;4994676;28;20058;-57
2022/09/15 13:50:37;;;;;;;2.88;0.60;;;;;;;;;;4976008;28;20044;-57
2022/09/15 13:53:03;;;;;;;;;;;;;;;;;;4975592;28;20054;-56
2022/09/15 13:55:31;;;;;;;3.03;0.60;;;;;;;;;;4996762;28;19925;-55
2022/09/15 13:57:59;;;;;;;4.57;0.70;;;;;;;;;;4990610;28;20061;-59
2022/09/15 14:00:28;;;;;;;2.95;0.50;;;;;;;;;;4978296;28;20055;-57
2022/09/15 14:02:57;;;;;;;6.13;0.68;;;;;;;;;;4986492;28;20065;-56
2022/09/15 14:05:27;;;;;;;3.70;0.90;;;;;;;;;;4993835;28;20065;-58
2022/09/15 14:07:57;;;;;;;1.83;0.60;;;;;;;;;;4984852;28;20061;-58
2022/09/15 14:10:24;;;;;;;5.85;0.98;;;;;;;;;;4989332;28;20050;-58
2022/09/15 14:12:51;;;;;;;4.22;0.60;;;;;;;;;;4990840;28;20050;-58
2022/09/15 14:15:20;;;;;;;1.98;0.68;;;;;;;;;;5010053;28;20062;-57
2022/09/15 14:17:47;;;;;;;5.40;0.75;;;;;;;;;;5006752;28;20108;-60
2022/09/15 14:20:22;;;;;;;3.75;0.88;;;;;;;;;;4985873;28;20053;-57
2022/09/15 14:22:50;;;;;;;3.75;0.70;;;;;;;;;;4995034;28;20050;-55
2022/09/15 14:25:20;;;;;;;3.42;0.57;;;;;;;;;;5026321;28;20148;-60
2022/09/15 14:27:49;;;;;;;6.80;1.00;;;;;;;;;;5010103;28;20245;-57
2022/09/15 14:30:18;;;;;;;4.10;1.00;;;;;;;;;;5003010;28;20061;-58
2022/09/15 14:32:46;;;;;;;2.42;0.52;;;;;;;;;;4990042;28;20054;-54
2022/09/15 14:35:16;;;;;;;3.42;0.70;;;;;;;;;;4986816;28;20081;-58
2022/09/15 14:37:48;;;;;;;4.57;0.80;;;;;;;;;;4990531;28;20133;-57
2022/09/15 14:40:19;;;;;;;2.38;1.00;;;;;;;;;;4987531;28;20054;-58
2022/09/15 14:42:45;;;;;;;7.75;1.08;;;;;;;;;;4997824;28;20072;-63
2022/09/15 14:45:14;;;;;;;4.18;0.80;;;;;;;;;;5004417;28;20088;-55
2022/09/15 14:47:42;;;;;;;3.97;0.70;;;;;;;;;;5008649;28;20058;-54
2022/09/15 14:50:12;;;;;;;8.82;0.90;;;;;;;;;;4996054;28;20197;-57
2022/09/15 14:52:40;;;;;;;5.28;0.95;;;;;;;;;;4990216;28;20073;-56
2022/09/15 14:55:12;;;;;;;2.78;0.70;;;;;;;;;;4986627;28;20058;-63
2022/09/15 14:57:40;;;;;;;4.43;0.70;;;;;;;;;;4990257;28;20050;-62
2022/09/15 15:00:09;;;;;;;6.47;0.93;;;;;;;;;;4992974;28;20052;-59
2022/09/15 15:02:47;;;;;;;6.03;0.90;;;;;;;;;;5009348;28;20065;-58